This is the latest recevied weather packets stored in our database for station/object DO7ZT-10. If no packets are shown the sender has not sent any weather packets the latest 10 day(s).
| Time | Temp. | Humidity | Pressure | Rain* | Wind** | Luminosity | Snow |
|---|---|---|---|---|---|---|---|
| 1777596482 | 5° C | 79% | 1028.6 hPa | - | - | - | - |
| 1777595582 | 5° C | 77% | 1028.7 hPa | - | - | - | - |
| 1777594682 | 5° C | 78% | 1028.6 hPa | - | - | - | - |
| 1777593782 | 5.56° C | 75% | 1028.7 hPa | - | - | - | - |
| 1777592882 | 6.11° C | 74% | 1028.7 hPa | - | - | - | - |
| 1777591982 | 6.11° C | 75% | 1028.7 hPa | - | - | - | - |
| 1777591082 | 6.11° C | 75% | 1028.7 hPa | - | - | - | - |
| 1777590182 | 6.11° C | 75% | 1028.8 hPa | - | - | - | - |
| 1777589281 | 6.11° C | 73% | 1028.9 hPa | - | - | - | - |
| 1777588381 | 6.11° C | 72% | 1029 hPa | - | - | - | - |
| 1777587481 | 6.11° C | 73% | 1028.9 hPa | - | - | - | - |
| 1777586581 | 6.67° C | 70% | 1028.8 hPa | - | - | - | - |
| 1777585681 | 6.67° C | 70% | 1028.8 hPa | - | - | - | - |
| 1777584781 | 6.67° C | 69% | 1028.8 hPa | - | - | - | - |
| 1777583881 | 7.22° C | 68% | 1028.8 hPa | - | - | - | - |
| 1777582981 | 7.22° C | 67% | 1028.8 hPa | - | - | - | - |
| 1777582081 | 7.78° C | 66% | 1028.9 hPa | - | - | - | - |
| 1777581181 | 7.78° C | 66% | 1028.9 hPa | - | - | - | - |
| 1777580281 | 7.78° C | 66% | 1028.9 hPa | - | - | - | - |
| 1777579381 | 8.33° C | 62% | 1028.9 hPa | - | - | - | - |
| 1777578481 | 8.89° C | 61% | 1028.8 hPa | - | - | - | - |
| 1777577581 | 8.89° C | 61% | 1028.8 hPa | - | - | - | - |
| 1777576680 | 10° C | 58% | 1028.7 hPa | - | - | - | - |
| 1777575780 | 11.11° C | 54% | 1028.6 hPa | - | - | - | - |
| 1777574880 | 12.22° C | 51% | 1028.6 hPa | - | - | - | - |
* Rain since midnight (hover to see other rain measurements)
** Current wind speed in m/s (hover to see current wind gust speed)